createdAt,value
2022-12-26T00:01:27.616Z,99787.22
2022-12-26T00:03:57.083Z,99803.97
2022-12-26T00:06:27.444Z,99793.53
2022-12-26T00:08:55.885Z,99796.06
2022-12-26T00:11:24.665Z,99791.53
2022-12-26T00:13:57.086Z,99797.78
2022-12-26T00:16:26.436Z,99781.78
2022-12-26T00:18:54.500Z,99796.28
2022-12-26T00:21:23.949Z,99811.53
2022-12-26T00:23:51.174Z,99810.03
2022-12-26T00:26:21.711Z,99820.25
2022-12-26T00:28:49.573Z,99815.53
2022-12-26T00:31:26.435Z,99818.06
2022-12-26T00:33:53.845Z,99824.50
2022-12-26T00:36:28.256Z,99812.50
2022-12-26T00:38:57.179Z,99815.03
2022-12-26T00:41:24.908Z,99809.25
2022-12-26T00:43:52.141Z,99810.75
2022-12-26T00:46:22.275Z,99801.03
2022-12-26T00:48:49.774Z,99807.75
2022-12-26T00:51:20.242Z,99809.75
2022-12-26T00:53:47.442Z,99817.72
2022-12-26T00:56:15.774Z,99813.94
2022-12-26T00:58:45.704Z,99814.69
2022-12-26T01:01:21.613Z,99818.69
2022-12-26T01:03:50.174Z,99815.88
2022-12-26T01:06:18.501Z,99830.34
2022-12-26T01:08:45.622Z,99836.31
2022-12-26T01:11:36.998Z,99831.06
2022-12-26T01:14:04.542Z,99829.28
2022-12-26T01:16:31.975Z,99830.25
2022-12-26T01:18:59.132Z,99834.22
2022-12-26T01:21:28.887Z,99837.47
2022-12-26T01:23:56.293Z,99833.22
2022-12-26T01:26:23.753Z,99845.91
2022-12-26T01:28:52.255Z,99838.44
2022-12-26T01:31:20.937Z,99838.72
2022-12-26T01:33:48.199Z,99839.47
2022-12-26T01:36:17.017Z,99828.22
2022-12-26T01:38:46.513Z,99830.47
2022-12-26T01:41:17.353Z,99827.72
2022-12-26T01:43:57.027Z,99826.41
2022-12-26T01:46:30.803Z,99827.66
2022-12-26T01:49:02.338Z,99827.16
2022-12-26T01:51:33.595Z,99822.66
2022-12-26T01:54:39.304Z,99825.88
2022-12-26T01:56:54.049Z,99825.41
2022-12-26T01:59:26.203Z,99832.88
2022-12-26T02:01:55.419Z,99842.84
2022-12-26T02:04:48.016Z,99834.31
2022-12-26T02:07:20.305Z,99829.97
2022-12-26T02:09:47.495Z,99828.00
2022-12-26T02:12:35.673Z,99829.97
2022-12-26T02:15:10.600Z,99827.94
2022-12-26T02:17:39.305Z,99834.66
2022-12-26T02:20:29.121Z,99829.19
2022-12-26T02:23:08.648Z,99831.16
2022-12-26T02:25:54.400Z,99820.94
2022-12-26T02:28:40.292Z,99823.69
2022-12-26T02:31:25.528Z,99830.88
2022-12-26T02:33:52.893Z,99824.94
2022-12-26T02:36:36.961Z,99818.69
2022-12-26T02:39:44.614Z,99818.69
2022-12-26T02:42:55.461Z,99830.63
2022-12-26T02:45:47.645Z,99828.41
2022-12-26T02:48:39.316Z,99836.38
2022-12-26T02:51:50.193Z,99827.69
2022-12-26T02:55:01.102Z,99835.91
2022-12-26T02:57:56.241Z,99827.31
2022-12-26T03:00:42.000Z,99833.78
2022-12-26T03:03:28.435Z,99836.03
2022-12-26T03:06:19.540Z,99826.00
2022-12-26T03:09:11.032Z,99828.50
2022-12-26T03:12:00.223Z,99839.47
2022-12-26T03:14:37.095Z,99837.47
2022-12-26T03:17:21.697Z,99836.72
2022-12-26T03:20:00.804Z,99825.75
2022-12-26T03:22:49.433Z,99823.94
2022-12-26T03:25:42.180Z,99826.69
2022-12-26T03:28:09.930Z,99833.44
2022-12-26T03:30:50.824Z,99844.13
2022-12-26T03:33:49.919Z,99839.88
2022-12-26T03:36:36.714Z,99843.31
2022-12-26T03:39:13.636Z,99845.50
2022-12-26T03:42:25.788Z,99838.69
2022-12-26T03:45:44.691Z,99847.88
2022-12-26T03:48:54.566Z,99853.38
2022-12-26T03:51:44.306Z,99857.34
2022-12-26T03:54:35.082Z,99860.38
2022-12-26T03:57:28.334Z,99862.44
2022-12-26T04:00:27.025Z,99873.97
2022-12-26T04:03:17.881Z,99858.53
2022-12-26T04:06:06.913Z,99865.31
2022-12-26T04:09:14.479Z,99860.59
2022-12-26T04:12:05.391Z,99857.84
2022-12-26T04:15:11.185Z,99862.09
2022-12-26T04:18:19.830Z,99843.38
2022-12-26T04:21:39.986Z,99842.06
2022-12-26T04:24:35.694Z,99842.06
2022-12-26T04:27:26.543Z,99838.06
2022-12-26T04:30:12.833Z,99841.38
2022-12-26T04:33:07.828Z,99848.13
2022-12-26T04:36:11.299Z,99851.81
2022-12-26T04:39:04.187Z,99850.59
2022-12-26T04:41:53.247Z,99843.56
2022-12-26T04:44:24.672Z,99852.09
2022-12-26T04:46:54.170Z,99854.81
2022-12-26T04:49:40.139Z,99853.81
2022-12-26T04:52:11.348Z,99860.88
2022-12-26T04:54:38.529Z,99856.16
2022-12-26T04:57:07.091Z,99856.41
2022-12-26T04:59:34.254Z,99848.94
2022-12-26T05:02:20.352Z,99855.66
2022-12-26T05:05:06.026Z,99855.19
2022-12-26T05:07:55.781Z,99855.38
2022-12-26T05:10:27.832Z,99857.44
2022-12-26T05:12:55.386Z,99855.66
2022-12-26T05:15:22.652Z,99855.88
2022-12-26T05:18:09.191Z,99869.09
2022-12-26T05:20:54.671Z,99866.09
2022-12-26T05:23:43.568Z,99868.44
2022-12-26T05:26:42.054Z,99872.13
2022-12-26T05:29:09.745Z,99868.34
2022-12-26T05:31:37.493Z,99873.16
2022-12-26T05:34:10.711Z,99870.22
2022-12-26T05:36:41.581Z,99871.94
2022-12-26T05:39:09.986Z,99873.91
2022-12-26T05:41:38.030Z,99875.22
2022-12-26T05:44:06.710Z,99884.50
2022-12-26T05:46:34.745Z,99881.81
2022-12-26T05:49:02.711Z,99893.78
2022-12-26T05:51:29.751Z,99898.03
2022-12-26T05:53:57.113Z,99894.03
2022-12-26T05:56:24.312Z,99892.81
2022-12-26T05:58:59.345Z,99901.31
2022-12-26T06:01:28.218Z,99891.84
2022-12-26T06:03:58.708Z,99887.13
2022-12-26T06:06:26.794Z,99881.13
2022-12-26T06:08:57.461Z,99869.88
2022-12-26T06:11:26.841Z,99880.59
2022-12-26T06:13:57.599Z,99883.59
2022-12-26T06:16:24.754Z,99891.63
2022-12-26T06:18:52.213Z,99884.66
2022-12-26T06:21:20.468Z,99883.13
2022-12-26T06:23:48.783Z,99880.09
2022-12-26T06:26:17.364Z,99880.38
2022-12-26T06:28:45.181Z,99877.16
2022-12-26T06:31:21.686Z,99880.94
2022-12-26T06:33:51.585Z,99887.19
2022-12-26T06:36:25.159Z,99888.22
2022-12-26T06:38:53.863Z,99886.72
2022-12-26T06:41:23.564Z,99888.50
2022-12-26T06:43:52.061Z,99895.03
2022-12-26T06:46:21.721Z,99892.47
2022-12-26T06:48:49.241Z,99900.50
2022-12-26T06:51:21.393Z,99896.53
2022-12-26T06:53:50.797Z,99902.78
2022-12-26T06:56:26.261Z,99904.75
2022-12-26T06:59:06.719Z,99900.03
2022-12-26T07:01:35.172Z,99904.56
2022-12-26T07:04:04.389Z,99913.75
2022-12-26T07:06:37.200Z,99912.25
2022-12-26T07:09:13.184Z,99920.47
2022-12-26T07:11:42.749Z,99916.59
2022-12-26T07:14:10.337Z,99910.81
2022-12-26T07:16:39.314Z,99912.03
2022-12-26T07:19:14.072Z,99907.03
2022-12-26T07:21:41.782Z,99912.03
2022-12-26T07:24:17.874Z,99917.53
2022-12-26T07:26:45.541Z,99914.84
2022-12-26T07:29:14.258Z,99911.63
2022-12-26T07:31:44.733Z,99907.44
2022-12-26T07:34:12.515Z,99902.47
2022-12-26T07:36:41.456Z,99900.97
2022-12-26T07:39:09.078Z,99902.22
2022-12-26T07:41:54.778Z,99915.97
2022-12-26T07:44:22.158Z,99908.66
2022-12-26T07:46:49.304Z,99918.72
2022-12-26T07:49:17.474Z,99917.94
2022-12-26T07:51:44.936Z,99931.41
2022-12-26T07:54:12.905Z,99938.88
2022-12-26T07:56:40.549Z,99941.91
2022-12-26T07:59:12.536Z,99936.91
2022-12-26T08:01:39.789Z,99949.19
2022-12-26T08:04:07.393Z,99955.25
2022-12-26T08:06:34.574Z,99955.94
2022-12-26T08:09:04.615Z,99943.75
2022-12-26T08:11:35.810Z,99945.69
2022-12-26T08:14:03.507Z,99942.19
2022-12-26T08:16:31.550Z,99941.44
2022-12-26T08:18:59.394Z,99948.97
2022-12-26T08:21:26.489Z,99945.34
2022-12-26T08:23:53.973Z,99952.44
2022-12-26T08:26:23.173Z,99952.22
2022-12-26T08:28:52.024Z,99944.78
2022-12-26T08:31:22.286Z,99945.81
2022-12-26T08:33:50.103Z,99947.13
2022-12-26T08:36:18.365Z,99953.16
2022-12-26T08:38:46.357Z,99950.75
2022-12-26T08:41:13.610Z,99953.53
2022-12-26T08:46:28.415Z,99973.78
2022-12-26T08:48:55.926Z,99969.31
2022-12-26T08:51:25.476Z,99971.56
2022-12-26T08:53:55.288Z,99971.16
2022-12-26T08:56:25.284Z,99974.41
2022-12-26T08:58:53.228Z,99963.50
2022-12-26T09:01:28.645Z,99969.00
2022-12-26T09:03:56.926Z,99967.56
2022-12-26T09:06:24.835Z,99971.13
2022-12-26T09:08:54.885Z,99964.47
2022-12-26T09:11:26.998Z,99971.09
2022-12-26T09:13:56.633Z,99962.59
2022-12-26T09:16:26.603Z,99961.41
2022-12-26T09:18:56.568Z,99961.41
2022-12-26T09:21:24.769Z,99959.47
2022-12-26T09:23:58.161Z,99954.22
2022-12-26T09:26:26.128Z,99954.03
2022-12-26T09:28:54.288Z,99951.59
2022-12-26T09:31:24.725Z,99953.09
2022-12-26T09:33:53.931Z,99946.63
2022-12-26T09:36:28.538Z,99945.56
2022-12-26T09:38:58.115Z,99947.31
2022-12-26T09:41:37.892Z,99943.06
2022-12-26T09:44:29.469Z,99952.13
2022-12-26T09:47:32.578Z,99953.41
2022-12-26T09:50:05.763Z,99945.91
2022-12-26T09:52:39.193Z,99950.44
2022-12-26T09:55:42.148Z,99946.09
2022-12-26T09:58:31.246Z,99939.72
2022-12-26T10:01:17.104Z,99937.47
2022-12-26T10:03:50.422Z,99938.41
2022-12-26T10:06:23.839Z,99934.22
2022-12-26T10:09:44.890Z,99938.78
2022-12-26T10:12:20.995Z,99939.44
2022-12-26T10:15:03.048Z,99933.16
2022-12-26T10:17:40.820Z,99935.66
2022-12-26T10:20:23.998Z,99933.44
2022-12-26T10:23:13.294Z,99929.47
2022-12-26T10:25:51.657Z,99931.75
2022-12-26T10:28:28.194Z,99932.41
2022-12-26T10:30:58.341Z,99934.22
2022-12-26T10:33:37.242Z,99927.72
2022-12-26T10:36:04.860Z,99930.34
2022-12-26T10:38:43.942Z,99919.31
2022-12-26T10:41:23.254Z,99921.75
2022-12-26T10:43:50.662Z,99918.25
2022-12-26T10:46:29.897Z,99919.06
2022-12-26T10:48:58.423Z,99927.59
2022-12-26T10:51:26.940Z,99928.81
2022-12-26T10:53:55.060Z,99922.84
2022-12-26T10:56:25.202Z,99924.09
2022-12-26T10:59:05.274Z,99905.88
2022-12-26T11:01:47.679Z,99906.41
2022-12-26T11:04:31.180Z,99902.34
2022-12-26T11:07:11.573Z,99897.84
2022-12-26T11:09:40.150Z,99906.16
2022-12-26T11:12:23.202Z,99901.41
2022-12-26T11:14:57.319Z,99898.16
2022-12-26T11:17:30.605Z,99888.16
2022-12-26T11:20:16.369Z,99873.44
2022-12-26T11:22:44.422Z,99869.94
2022-12-26T11:25:17.866Z,99862.16
2022-12-26T11:27:53.145Z,99872.94
2022-12-26T11:30:25.383Z,99866.47
2022-12-26T11:33:11.731Z,99861.69
2022-12-26T11:35:52.249Z,99863.19
2022-12-26T11:38:44.094Z,99859.91
2022-12-26T11:41:33.151Z,99858.88
2022-12-26T11:44:09.452Z,99845.09
2022-12-26T11:46:41.098Z,99846.38
2022-12-26T11:49:19.811Z,99844.13
2022-12-26T11:51:52.883Z,99847.16
2022-12-26T11:54:26.350Z,99856.41
2022-12-26T11:57:13.647Z,99840.13
2022-12-26T11:59:43.160Z,99849.41
2022-12-26T12:02:28.603Z,99847.69
2022-12-26T12:05:07.038Z,99839.38
2022-12-26T12:07:49.667Z,99837.34
2022-12-26T12:10:43.028Z,99853.63
2022-12-26T12:13:33.669Z,99852.63
2022-12-26T12:16:31.766Z,99860.13
2022-12-26T12:19:11.146Z,99856.41
2022-12-26T12:21:46.416Z,99863.66
2022-12-26T12:24:44.978Z,99858.63
2022-12-26T12:27:48.265Z,99861.88
2022-12-26T12:30:36.985Z,99854.38
2022-12-26T12:33:23.593Z,99853.16
2022-12-26T12:36:13.660Z,99842.41
2022-12-26T12:39:11.231Z,99843.13
2022-12-26T12:41:55.576Z,99839.16
2022-12-26T12:44:48.542Z,99836.66
2022-12-26T12:47:21.823Z,99844.16
2022-12-26T12:50:10.834Z,99846.69
2022-12-26T12:52:38.352Z,99844.91
2022-12-26T12:55:23.686Z,99838.19
2022-12-26T12:58:23.647Z,99836.41
2022-12-26T13:00:56.803Z,99842.41
2022-12-26T13:03:40.887Z,99846.19
2022-12-26T13:06:20.895Z,99842.44
2022-12-26T13:09:00.693Z,99830.69
2022-12-26T13:11:33.870Z,99845.22
2022-12-26T13:14:15.124Z,99839.94
2022-12-26T13:16:47.069Z,99828.41
2022-12-26T13:19:29.155Z,99829.91
2022-12-26T13:22:04.412Z,99818.13
2022-12-26T13:24:36.394Z,99820.41
2022-12-26T13:27:03.479Z,99816.16
2022-12-26T13:29:38.979Z,99822.41
2022-12-26T13:32:15.298Z,99816.41
2022-12-26T13:34:44.997Z,99802.63
2022-12-26T13:37:33.812Z,99809.63
2022-12-26T13:40:11.704Z,99794.84
2022-12-26T13:43:02.908Z,99816.41
2022-12-26T13:45:47.645Z,99811.63
2022-12-26T13:48:17.395Z,99824.94
2022-12-26T13:50:56.446Z,99820.91
2022-12-26T13:53:26.659Z,99813.16
2022-12-26T13:55:55.744Z,99813.66
2022-12-26T13:58:32.150Z,99813.16
2022-12-26T14:01:23.844Z,99818.91
2022-12-26T14:04:11.853Z,99816.41
2022-12-26T14:06:58.071Z,99806.66
2022-12-26T14:09:48.183Z,99807.16
2022-12-26T14:12:30.126Z,99822.16
2022-12-26T14:15:40.163Z,99819.91
2022-12-26T14:18:33.772Z,99822.41
2022-12-26T14:21:19.423Z,99817.38
2022-12-26T14:23:53.395Z,99813.66
2022-12-26T14:26:41.096Z,99810.88
2022-12-26T14:29:21.891Z,99820.84
2022-12-26T14:31:54.909Z,99816.88
2022-12-26T14:34:25.552Z,99825.34
2022-12-26T14:37:22.643Z,99815.81
2022-12-26T14:40:08.886Z,99812.81
2022-12-26T14:43:11.744Z,99817.03
2022-12-26T14:45:40.396Z,99818.00
2022-12-26T14:48:16.698Z,99818.22
2022-12-26T14:50:47.319Z,99816.19
2022-12-26T14:53:20.699Z,99813.94
2022-12-26T14:55:52.645Z,99810.16
2022-12-26T14:58:28.862Z,99808.63
2022-12-26T15:01:09.153Z,99814.63
2022-12-26T15:04:02.513Z,99819.38
2022-12-26T15:07:00.492Z,99817.84
2022-12-26T15:10:19.134Z,99815.13
2022-12-26T15:12:58.949Z,99810.13
2022-12-26T15:15:34.318Z,99815.31
2022-12-26T15:18:51.749Z,99818.03
2022-12-26T15:21:38.051Z,99816.28
2022-12-26T15:24:14.587Z,99812.78
2022-12-26T15:26:56.811Z,99828.59
2022-12-26T15:30:13.936Z,99834.09
2022-12-26T15:32:40.982Z,99848.13
2022-12-26T15:35:31.113Z,99846.13
2022-12-26T15:38:04.134Z,99849.16
2022-12-26T15:40:45.765Z,99841.41
2022-12-26T15:43:27.896Z,99844.41
2022-12-26T15:46:08.803Z,99857.91
2022-12-26T15:48:53.927Z,99859.44
2022-12-26T15:51:56.128Z,99843.16
2022-12-26T15:54:29.344Z,99842.38
2022-12-26T15:57:02.599Z,99845.63
2022-12-26T15:59:41.816Z,99854.88
2022-12-26T16:02:29.451Z,99851.59
2022-12-26T16:05:19.297Z,99855.06
2022-12-26T16:07:53.109Z,99844.06
2022-12-26T16:10:26.488Z,99842.53
2022-12-26T16:13:26.200Z,99859.81
2022-12-26T16:15:59.009Z,99840.81
2022-12-26T16:18:31.442Z,99851.81
2022-12-26T16:21:21.749Z,99854.06
2022-12-26T16:23:54.141Z,99858.31
2022-12-26T16:26:29.200Z,99883.38
2022-12-26T16:29:00.405Z,99897.66
2022-12-26T16:31:31.239Z,99891.94
2022-12-26T16:34:00.166Z,99879.44
2022-12-26T16:36:36.842Z,99877.94
2022-12-26T16:39:09.418Z,99880.69
2022-12-26T16:41:57.205Z,99867.69
2022-12-26T16:44:36.780Z,99869.16
2022-12-26T16:47:10.385Z,99879.88
2022-12-26T16:49:41.698Z,99868.66
2022-12-26T16:52:30.990Z,99863.59
2022-12-26T16:54:58.401Z,99872.34
2022-12-26T16:57:26.420Z,99856.81
2022-12-26T17:00:00.072Z,99870.81
2022-12-26T17:02:31.461Z,99875.03
2022-12-26T17:05:26.435Z,99897.50
2022-12-26T17:07:58.616Z,99889.69
2022-12-26T17:10:29.607Z,99882.94
2022-12-26T17:13:01.054Z,99880.41
2022-12-26T17:15:37.966Z,99874.84
2022-12-26T17:18:47.203Z,99862.06
2022-12-26T17:21:31.421Z,99863.78
2022-12-26T17:24:09.872Z,99861.53
2022-12-26T17:26:39.170Z,99857.47
2022-12-26T17:29:06.328Z,99862.72
2022-12-26T17:31:38.224Z,99871.44
2022-12-26T17:34:16.015Z,99855.75
2022-12-26T17:37:17.755Z,99854.59
2022-12-26T17:39:31.171Z,99856.09
2022-12-26T17:42:01.633Z,99852.56
2022-12-26T17:44:43.377Z,99856.31
2022-12-26T17:47:18.733Z,99877.75
2022-12-26T17:49:48.216Z,99872.44
2022-12-26T17:52:18.476Z,99872.66
2022-12-26T17:54:46.017Z,99877.94
2022-12-26T17:57:22.330Z,99870.97
2022-12-26T17:59:50.169Z,99862.28
2022-12-26T18:02:18.688Z,99864.06
2022-12-26T18:04:47.433Z,99863.34
2022-12-26T18:07:18.840Z,99857.38
2022-12-26T18:09:46.986Z,99851.91
2022-12-26T18:12:16.212Z,99841.34
2022-12-26T18:14:43.707Z,99840.88
2022-12-26T18:17:19.671Z,99834.69
2022-12-26T18:19:49.441Z,99864.00
2022-12-26T18:22:19.276Z,99851.72
2022-12-26T18:24:46.564Z,99854.00
2022-12-26T18:27:19.488Z,99853.75
2022-12-26T18:29:47.153Z,99873.34
2022-12-26T18:32:27.713Z,99875.88
2022-12-26T18:34:55.829Z,99882.41
2022-12-26T18:37:25.802Z,99888.41
2022-12-26T18:39:53.858Z,99875.16
2022-12-26T18:42:21.350Z,99868.69
2022-12-26T18:44:48.817Z,99879.56
2022-12-26T18:47:18.714Z,99905.09
2022-12-26T18:49:49.441Z,99894.09
2022-12-26T18:52:18.340Z,99911.06
2022-12-26T18:54:48.163Z,99900.06
2022-12-26T18:57:20.651Z,99899.59
2022-12-26T18:59:51.193Z,99873.66
2022-12-26T19:02:21.293Z,99882.53
2022-12-26T19:04:49.385Z,99869.38
2022-12-26T19:07:20.749Z,99877.47
2022-12-26T19:09:58.173Z,99866.13
2022-12-26T19:12:26.156Z,99875.06
2022-12-26T19:14:53.314Z,99874.75
2022-12-26T19:17:21.059Z,99867.31
2022-12-26T19:19:50.960Z,99868.72
2022-12-26T19:22:18.452Z,99869.53
2022-12-26T19:24:47.063Z,99876.47
2022-12-26T19:27:15.079Z,99866.81
2022-12-26T19:29:42.298Z,99876.59
2022-12-26T19:32:09.824Z,99867.34
2022-12-26T19:34:37.837Z,99877.41
2022-12-26T19:37:05.804Z,99875.78
2022-12-26T19:39:33.206Z,99872.47
2022-12-26T19:42:01.139Z,99877.72
2022-12-26T19:44:30.286Z,99866.06
2022-12-26T19:47:12.351Z,99864.78
2022-12-26T19:49:42.245Z,99872.66
2022-12-26T19:52:13.410Z,99867.84
2022-12-26T19:54:45.997Z,99876.16
2022-12-26T19:57:13.747Z,99850.75
2022-12-26T19:59:43.238Z,99872.44
2022-12-26T20:02:15.140Z,99865.78
2022-12-26T20:04:42.332Z,99859.00
2022-12-26T20:07:09.908Z,99850.47
2022-12-26T20:09:37.602Z,99839.38
2022-12-26T20:12:05.687Z,99845.59
2022-12-26T20:14:33.135Z,99825.00
2022-12-26T20:17:06.631Z,99847.00
2022-12-26T20:19:35.087Z,99880.28
2022-12-26T20:22:02.902Z,99888.81
2022-12-26T20:24:30.486Z,99869.66
2022-12-26T20:26:58.298Z,99874.44
2022-12-26T20:29:25.373Z,99882.75
2022-12-26T20:31:56.350Z,99874.44
2022-12-26T20:34:25.229Z,99882.81
2022-12-26T20:36:53.659Z,99874.06
2022-12-26T20:39:22.820Z,99845.81
2022-12-26T20:41:52.608Z,99857.91
2022-12-26T20:44:20.174Z,99868.84
2022-12-26T20:46:47.871Z,99881.44
2022-12-26T20:49:15.194Z,99869.38
2022-12-26T20:51:44.736Z,99875.41
2022-12-26T20:54:14.231Z,99890.00
2022-12-26T20:56:42.803Z,99883.91
2022-12-26T20:59:10.370Z,99881.16
2022-12-26T21:01:40.415Z,99852.66
2022-12-26T21:04:08.819Z,99858.22
2022-12-26T21:06:38.733Z,99861.50
2022-12-26T21:09:07.169Z,99864.16
2022-12-26T21:11:38.488Z,99860.56
2022-12-26T21:14:10.172Z,99841.00
2022-12-26T21:16:41.326Z,99852.78
2022-12-26T21:19:14.679Z,99860.69
2022-12-26T21:21:45.666Z,99861.50
2022-12-26T21:24:19.795Z,99880.38
2022-12-26T21:26:47.857Z,99860.03
2022-12-26T21:29:21.895Z,99843.94
2022-12-26T21:31:52.263Z,99837.34
2022-12-26T21:34:21.209Z,99839.91
2022-12-26T21:37:08.109Z,99845.81
2022-12-26T21:39:36.996Z,99839.00
2022-12-26T21:42:06.895Z,99827.19
2022-12-26T21:44:36.076Z,99856.16
2022-12-26T21:47:06.076Z,99838.25
2022-12-26T21:49:33.097Z,99832.94
2022-12-26T21:52:00.608Z,99846.28
2022-12-26T21:54:49.057Z,99846.06
2022-12-26T21:57:17.999Z,99849.59
2022-12-26T21:59:57.977Z,99842.41
2022-12-26T22:02:50.854Z,99865.34
2022-12-26T22:05:20.408Z,99856.94
2022-12-26T22:07:51.969Z,99859.22
2022-12-26T22:10:38.764Z,99883.34
2022-12-26T22:13:06.447Z,99880.03
2022-12-26T22:15:52.187Z,99873.75
2022-12-26T22:18:20.079Z,99891.81
2022-12-26T22:20:49.588Z,99897.81
2022-12-26T22:23:17.151Z,99912.44
2022-12-26T22:25:44.324Z,99908.56
2022-12-26T22:28:16.548Z,99920.41
2022-12-26T22:30:51.454Z,99910.22
2022-12-26T22:33:19.223Z,99902.69
2022-12-26T22:35:46.989Z,99907.19
2022-12-26T22:38:14.857Z,99911.22
2022-12-26T22:40:42.383Z,99907.19
2022-12-26T22:43:43.358Z,99906.38
2022-12-26T22:46:10.804Z,99923.91
2022-12-26T22:48:41.754Z,99923.19
2022-12-26T22:51:10.002Z,99926.69
2022-12-26T22:53:38.019Z,99916.72
2022-12-26T22:56:06.567Z,99909.44
2022-12-26T22:58:34.627Z,99895.34
2022-12-26T23:01:01.725Z,99894.66
2022-12-26T23:03:29.302Z,99898.03
2022-12-26T23:05:56.895Z,99891.56
2022-12-26T23:08:28.302Z,99882.63
2022-12-26T23:10:59.026Z,99874.16
2022-12-26T23:13:28.854Z,99881.31
2022-12-26T23:15:56.149Z,99874.09
2022-12-26T23:18:59.412Z,99876.41
2022-12-26T23:21:39.798Z,99878.72
2022-12-26T23:24:23.682Z,99873.03
2022-12-26T23:26:55.112Z,99872.53
2022-12-26T23:29:44.075Z,99874.56
2022-12-26T23:32:13.591Z,99875.31
2022-12-26T23:34:43.318Z,99879.66
2022-12-26T23:37:10.563Z,99871.16
2022-12-26T23:39:38.238Z,99875.19
2022-12-26T23:42:05.501Z,99859.13
2022-12-26T23:44:32.952Z,99863.41
2022-12-26T23:47:00.193Z,99858.09
2022-12-26T23:49:29.815Z,99852.72
2022-12-26T23:51:59.533Z,99845.22
2022-12-26T23:54:27.193Z,99849.09
2022-12-26T23:56:54.906Z,99849.56
2022-12-26T23:59:22.938Z,99849.56
